Terminal Aerodrome Forecast
Issued by NWS Bismarck, ND

Home | Current Version | Previous Version | Graphics & Text | Print | Product List | Glossary On
Versions: 1 2 3 4 5 6 7 8 9 10 11 12 13 14 15
716
FTUS43 KBIS 220520
TAFISN
TAF
KISN 220520Z 2206/2306 VRB04KT P6SM SCT250
     FM221800 14005KT P6SM VCSH BKN200
     FM222000 04009KT P6SM VCTS SCT060CB BKN130
     FM230100 01010KT P6SM VCTS SCT050CB
     FM230400 04007KT P6SM VCTS BKN250CB=

USA.gov is the U.S. government's official web portal to all federal, state and local government web resources and services.